Weather at Lethbridge / J3 Airfield

Public forecast

Using degrees Celsius for public forecast. Weather courtesy of forecast.io.

Closest aviation weather report (METAR) to Lethbridge / J3 Airfield

Closest report is Lethbridge County Airport, 7.1 nm (13.1 km) SSW.

2024/05/21 13:00 (retrieved 1 hour ago)

CYQL 211300Z 18003KT 60SM FEW060 BKN100 BKN270 05/05 A2990 RMK SC1AC5CI1 SLP146

Closest aviation forecast (TAF) to Lethbridge / J3 Airfield

Closest forecast is Lethbridge County Airport, 7.1 nm (13.1 km) SSW.

2024/05/21 12:42 (retrieved 1 hour ago)

TAF CYQL 211140Z 2112/2124 22005KT P6SM FEW012 BKN050 TEMPO 2112/2115 SCT050 FM211500 27008KT P6SM FEW030 SCT120 FM211800 28012KT P6SM BKN100 FM212000 24012G22KT P6SM BKN100 TEMPO 2120/2124 VRB18G28KT P6SM -SHRA VCTS BKN080CB RMK FCST BASED ON AUTO OBS NXT FCST BY 211800Z